sensor_id;sensor_type;location;lat;lon;timestamp;pressure;altitude;pressure_sealevel;temperature;humidity
50057;BME280;36875;49.468;11.200;2023-04-25T00:01:24;97225.50;;;19.34;43.60
50057;BME280;36875;49.468;11.200;2023-04-25T00:03:51;97230.81;;;19.31;43.89
50057;BME280;36875;49.468;11.200;2023-04-25T00:06:16;97215.69;;;19.33;44.19
50057;BME280;36875;49.468;11.200;2023-04-25T00:08:43;97218.44;;;19.33;43.93
50057;BME280;36875;49.468;11.200;2023-04-25T00:11:08;97221.16;;;19.33;43.79
50057;BME280;36875;49.468;11.200;2023-04-25T00:13:34;97214.13;;;19.32;43.70
50057;BME280;36875;49.468;11.200;2023-04-25T00:15:59;97213.28;;;19.32;44.02
50057;BME280;36875;49.468;11.200;2023-04-25T00:18:25;97215.22;;;19.31;43.86
50057;BME280;36875;49.468;11.200;2023-04-25T00:20:55;97217.94;;;19.31;44.06
50057;BME280;36875;49.468;11.200;2023-04-25T00:23:21;97219.09;;;19.30;44.08
50057;BME280;36875;49.468;11.200;2023-04-25T00:25:48;97224.56;;;19.30;43.91
50057;BME280;36875;49.468;11.200;2023-04-25T00:28:15;97214.28;;;19.27;43.63
50057;BME280;36875;49.468;11.200;2023-04-25T00:30:41;97224.88;;;19.29;43.96
50057;BME280;36875;49.468;11.200;2023-04-25T00:33:07;97222.94;;;19.29;43.96
50057;BME280;36875;49.468;11.200;2023-04-25T00:35:32;97221.66;;;19.26;43.72
50057;BME280;36875;49.468;11.200;2023-04-25T00:37:59;97228.72;;;19.27;43.96
50057;BME280;36875;49.468;11.200;2023-04-25T00:40:25;97218.47;;;19.24;43.64
50057;BME280;36875;49.468;11.200;2023-04-25T00:42:51;97222.47;;;19.27;43.60
50057;BME280;36875;49.468;11.200;2023-04-25T00:45:18;97220.53;;;19.27;43.55
50057;BME280;36875;49.468;11.200;2023-04-25T00:47:44;97217.00;;;19.27;43.65
50057;BME280;36875;49.468;11.200;2023-04-25T00:50:10;97213.78;;;19.25;43.87
50057;BME280;36875;49.468;11.200;2023-04-25T00:52:37;97211.88;;;19.25;43.69
50057;BME280;36875;49.468;11.200;2023-04-25T00:55:05;97216.53;;;19.25;43.71
50057;BME280;36875;49.468;11.200;2023-04-25T00:57:30;97207.56;;;19.24;43.70
50057;BME280;36875;49.468;11.200;2023-04-25T00:59:56;97210.28;;;19.24;43.80
50057;BME280;36875;49.468;11.200;2023-04-25T01:02:22;97214.91;;;19.24;43.56
50057;BME280;36875;49.468;11.200;2023-04-25T01:04:48;97209.44;;;19.24;43.51
50057;BME280;36875;49.468;11.200;2023-04-25T01:07:14;97208.19;;;19.21;43.15
50057;BME280;36875;49.468;11.200;2023-04-25T01:09:40;97212.19;;;19.24;43.46
50057;BME280;36875;49.468;11.200;2023-04-25T01:12:07;97206.25;;;19.22;43.29
50057;BME280;36875;49.468;11.200;2023-04-25T01:14:33;97202.72;;;19.21;43.22
50057;BME280;36875;49.468;11.200;2023-04-25T01:16:59;97202.72;;;19.21;43.50
50057;BME280;36875;49.468;11.200;2023-04-25T01:19:24;97201.94;;;19.21;43.35
50057;BME280;36875;49.468;11.200;2023-04-25T01:21:51;97205.13;;;19.23;43.31
50057;BME280;36875;49.468;11.200;2023-04-25T01:24:17;97199.22;;;19.21;43.57
50057;BME280;36875;49.468;11.200;2023-04-25T01:26:43;97196.00;;;19.19;43.30
50057;BME280;36875;49.468;11.200;2023-04-25T01:29:14;97196.00;;;19.19;43.35
50057;BME280;36875;49.468;11.200;2023-04-25T01:31:40;97197.59;;;19.20;43.39
50057;BME280;36875;49.468;11.200;2023-04-25T01:34:06;97197.59;;;19.20;43.34
50057;BME280;36875;49.468;11.200;2023-04-25T01:36:31;97200.31;;;19.20;43.09
50057;BME280;36875;49.468;11.200;2023-04-25T01:38:58;97201.47;;;19.19;43.05
50057;BME280;36875;49.468;11.200;2023-04-25T01:41:25;97200.63;;;19.18;43.30
50057;BME280;36875;49.468;11.200;2023-04-25T01:43:51;97192.78;;;19.17;43.04
50057;BME280;36875;49.468;11.200;2023-04-25T01:46:17;97194.38;;;19.18;43.27
50057;BME280;36875;49.468;11.200;2023-04-25T01:48:43;97200.63;;;19.18;43.22
50057;BME280;36875;49.468;11.200;2023-04-25T01:51:08;97196.81;;;19.19;43.35
50057;BME280;36875;49.468;11.200;2023-04-25T01:53:34;97194.38;;;19.18;43.34
50057;BME280;36875;49.468;11.200;2023-04-25T01:56:01;97201.78;;;19.17;42.84
50057;BME280;36875;49.468;11.200;2023-04-25T01:58:26;97208.34;;;19.16;42.92
50057;BME280;36875;49.468;11.200;2023-04-25T02:00:52;97203.69;;;19.17;43.28
50057;BME280;36875;49.468;11.200;2023-04-25T02:03:17;97198.22;;;19.17;43.28
50057;BME280;36875;49.468;11.200;2023-04-25T02:05:43;97202.88;;;19.16;42.96
50057;BME280;36875;49.468;11.200;2023-04-25T02:08:09;97208.34;;;19.16;43.13
50057;BME280;36875;49.468;11.200;2023-04-25T02:10:35;97202.09;;;19.16;42.95
50057;BME280;36875;49.468;11.200;2023-04-25T02:13:02;97208.66;;;19.15;43.05
50057;BME280;36875;49.468;11.200;2023-04-25T02:15:28;97205.94;;;19.15;42.85
50057;BME280;36875;49.468;11.200;2023-04-25T02:17:53;97205.16;;;19.14;42.98
50057;BME280;36875;49.468;11.200;2023-04-25T02:20:20;97196.97;;;19.14;43.11
50057;BME280;36875;49.468;11.200;2023-04-25T02:22:45;97196.47;;;19.12;43.13
50057;BME280;36875;49.468;11.200;2023-04-25T02:25:11;97199.69;;;19.14;42.68
50057;BME280;36875;49.468;11.200;2023-04-25T02:27:37;97198.91;;;19.14;43.21
50057;BME280;36875;49.468;11.200;2023-04-25T02:30:05;97190.88;;;19.09;43.01
50057;BME280;36875;49.468;11.200;2023-04-25T02:32:32;97187.00;;;19.10;42.84
50057;BME280;36875;49.468;11.200;2023-04-25T02:34:57;97185.56;;;19.12;42.78
50057;BME280;36875;49.468;11.200;2023-04-25T02:37:28;97180.44;;;19.11;42.67
50057;BME280;36875;49.468;11.200;2023-04-25T02:39:54;97183.97;;;19.11;43.12
50057;BME280;36875;49.468;11.200;2023-04-25T02:42:19;97184.78;;;19.12;42.69
50057;BME280;36875;49.468;11.200;2023-04-25T02:44:45;97176.59;;;19.12;42.62
50057;BME280;36875;49.468;11.200;2023-04-25T02:47:12;97171.00;;;19.08;42.95
50057;BME280;36875;49.468;11.200;2023-04-25T02:49:37;97169.53;;;19.11;42.66
50057;BME280;36875;49.468;11.200;2023-04-25T02:52:03;97165.84;;;19.06;42.85
50057;BME280;36875;49.468;11.200;2023-04-25T02:54:30;97162.66;;;19.04;42.79
50057;BME280;36875;49.468;11.200;2023-04-25T02:56:55;97169.06;;;19.09;42.79
50057;BME280;36875;49.468;11.200;2023-04-25T02:59:21;97176.09;;;19.10;42.88
50057;BME280;36875;49.468;11.200;2023-04-25T03:01:46;97170.63;;;19.10;43.09
50057;BME280;36875;49.468;11.200;2023-04-25T03:04:13;97170.16;;;19.07;42.80
50057;BME280;36875;49.468;11.200;2023-04-25T03:06:38;97169.06;;;19.09;42.58
50057;BME280;36875;49.468;11.200;2023-04-25T03:09:04;97162.34;;;19.06;42.91
50057;BME280;36875;49.468;11.200;2023-04-25T03:11:30;97160.88;;;19.09;42.80
50057;BME280;36875;49.468;11.200;2023-04-25T03:13:55;97153.81;;;19.07;42.65
50057;BME280;36875;49.468;11.200;2023-04-25T03:16:21;97147.09;;;19.05;42.80
50057;BME280;36875;49.468;11.200;2023-04-25T03:18:47;97152.22;;;19.06;42.98
50057;BME280;36875;49.468;11.200;2023-04-25T03:21:13;97144.81;;;19.07;42.93
50057;BME280;36875;49.468;11.200;2023-04-25T03:23:39;97147.41;;;19.03;42.70
50057;BME280;36875;49.468;11.200;2023-04-25T03:26:04;97156.88;;;19.06;42.87
50057;BME280;36875;49.468;11.200;2023-04-25T03:28:30;97159.59;;;19.06;42.93
50057;BME280;36875;49.468;11.200;2023-04-25T03:30:55;97153.31;;;19.05;42.65
50057;BME280;36875;49.468;11.200;2023-04-25T03:33:21;97146.59;;;19.03;42.52
50057;BME280;36875;49.468;11.200;2023-04-25T03:35:47;97149.81;;;19.05;42.44
50057;BME280;36875;49.468;11.200;2023-04-25T03:38:14;97147.09;;;19.05;42.81
50057;BME280;36875;49.468;11.200;2023-04-25T03:40:39;97146.28;;;19.04;42.90
50057;BME280;36875;49.468;11.200;2023-04-25T03:43:05;97144.66;;;19.03;42.38
50057;BME280;36875;49.468;11.200;2023-04-25T03:45:30;97144.34;;;19.05;42.46
50057;BME280;36875;49.468;11.200;2023-04-25T03:47:56;97139.22;;;19.03;42.68
50057;BME280;36875;49.468;11.200;2023-04-25T03:50:21;97141.47;;;19.01;42.65
50057;BME280;36875;49.468;11.200;2023-04-25T03:52:47;97143.88;;;19.03;42.48
50057;BME280;36875;49.468;11.200;2023-04-25T03:55:14;97134.41;;;19.00;42.63
50057;BME280;36875;49.468;11.200;2023-04-25T03:57:39;97142.25;;;19.02;42.83
50057;BME280;36875;49.468;11.200;2023-04-25T04:00:06;97143.09;;;19.02;42.81
50057;BME280;36875;49.468;11.200;2023-04-25T04:02:32;97147.72;;;19.02;42.79
50057;BME280;36875;49.468;11.200;2023-04-25T04:04:59;97144.19;;;19.01;42.52
50057;BME280;36875;49.468;11.200;2023-04-25T04:07:24;97149.66;;;19.01;42.55
50057;BME280;36875;49.468;11.200;2023-04-25T04:09:50;97142.59;;;19.00;42.38
50057;BME280;36875;49.468;11.200;2023-04-25T04:12:17;97148.03;;;19.00;42.39
50057;BME280;36875;49.468;11.200;2023-04-25T04:14:42;97150.75;;;19.00;42.47
50057;BME280;36875;49.468;11.200;2023-04-25T04:17:08;97154.31;;;19.01;42.58
50057;BME280;36875;49.468;11.200;2023-04-25T04:19:33;97152.38;;;19.01;42.69
50057;BME280;36875;49.468;11.200;2023-04-25T04:21:59;97156.22;;;19.00;42.37
50057;BME280;36875;49.468;11.200;2023-04-25T04:24:25;97154.63;;;18.99;42.59
50057;BME280;36875;49.468;11.200;2023-04-25T04:26:50;97155.44;;;19.00;42.32
50057;BME280;36875;49.468;11.200;2023-04-25T04:29:17;97149.19;;;18.99;42.63
50057;BME280;36875;49.468;11.200;2023-04-25T04:31:47;97153.00;;;18.98;42.71
50057;BME280;36875;49.468;11.200;2023-04-25T04:34:12;97154.63;;;18.99;42.44
50057;BME280;36875;49.468;11.200;2023-04-25T04:36:38;97155.75;;;18.98;42.66
50057;BME280;36875;49.468;11.200;2023-04-25T04:39:05;97153.00;;;18.98;42.64
50057;BME280;36875;49.468;11.200;2023-04-25T04:41:31;97153.00;;;18.98;42.14
50057;BME280;36875;49.468;11.200;2023-04-25T04:43:56;97153.84;;;18.99;42.44
50057;BME280;36875;49.468;11.200;2023-04-25T04:46:23;97155.75;;;18.98;42.41
50057;BME280;36875;49.468;11.200;2023-04-25T04:48:49;97158.00;;;18.96;42.35
50057;BME280;36875;49.468;11.200;2023-04-25T04:51:15;97158.47;;;18.98;42.06
50057;BME280;36875;49.468;11.200;2023-04-25T04:53:40;97164.75;;;18.99;42.02
50057;BME280;36875;49.468;11.200;2023-04-25T04:56:06;97166.34;;;19.00;42.06
50057;BME280;36875;49.468;11.200;2023-04-25T04:58:32;97158.94;;;19.00;42.10
50057;BME280;36875;49.468;11.200;2023-04-25T05:00:57;97168.91;;;19.05;42.18
50057;BME280;36875;49.468;11.200;2023-04-25T05:03:24;97170.50;;;19.06;42.00
50057;BME280;36875;49.468;11.200;2023-04-25T05:05:49;97167.44;;;19.07;42.10
50057;BME280;36875;49.468;11.200;2023-04-25T05:08:15;97171.31;;;19.06;42.66
50057;BME280;36875;49.468;11.200;2023-04-25T05:10:40;97174.50;;;19.09;43.29
50057;BME280;36875;49.468;11.200;2023-04-25T05:13:07;97174.81;;;19.07;43.20
50057;BME280;36875;49.468;11.200;2023-04-25T05:15:32;97167.44;;;19.07;43.40
50057;BME280;36875;49.468;11.200;2023-04-25T05:17:58;97172.91;;;19.07;43.32
50057;BME280;36875;49.468;11.200;2023-04-25T05:20:25;97172.91;;;19.07;43.78
50057;BME280;36875;49.468;11.200;2023-04-25T05:22:50;97171.78;;;19.09;43.79
50057;BME280;36875;49.468;11.200;2023-04-25T05:25:16;97169.38;;;19.07;43.92
50057;BME280;36875;49.468;11.200;2023-04-25T05:27:41;97179.97;;;19.09;43.62
50057;BME280;36875;49.468;11.200;2023-04-25T05:30:08;97168.09;;;19.04;44.06
50057;BME280;36875;49.468;11.200;2023-04-25T05:32:34;97171.31;;;19.06;44.02
50057;BME280;36875;49.468;11.200;2023-04-25T05:35:00;97177.88;;;19.05;43.90
50057;BME280;36875;49.468;11.200;2023-04-25T05:37:27;97170.19;;;18.99;44.15
50057;BME280;36875;49.468;11.200;2023-04-25T05:39:53;97168.91;;;19.05;44.20
50057;BME280;36875;49.468;11.200;2023-04-25T05:42:18;97166.97;;;19.05;44.50
50057;BME280;36875;49.468;11.200;2023-04-25T05:44:44;97187.66;;;19.06;44.59
50057;BME280;36875;49.468;11.200;2023-04-25T05:47:10;97180.59;;;19.05;44.48
50057;BME280;36875;49.468;11.200;2023-04-25T05:49:35;97191.19;;;19.07;44.34
50057;BME280;36875;49.468;11.200;2023-04-25T05:52:01;97192.81;;;19.08;44.65
50057;BME280;36875;49.468;11.200;2023-04-25T05:54:28;97190.88;;;19.09;44.22
50057;BME280;36875;49.468;11.200;2023-04-25T05:56:53;97194.22;;;19.14;44.09
50057;BME280;36875;49.468;11.200;2023-04-25T05:59:19;97196.63;;;19.16;44.13
50057;BME280;36875;49.468;11.200;2023-04-25T06:01:45;97201.47;;;19.19;44.22
50057;BME280;36875;49.468;11.200;2023-04-25T06:04:11;97195.34;;;19.22;44.01
50057;BME280;36875;49.468;11.200;2023-04-25T06:06:37;97204.00;;;19.24;43.76
50057;BME280;36875;49.468;11.200;2023-04-25T06:09:02;97203.34;;;19.27;43.84
50057;BME280;36875;49.468;11.200;2023-04-25T06:11:29;97196.44;;;19.30;43.46
50057;BME280;36875;49.468;11.200;2023-04-25T06:13:55;97199.53;;;19.28;43.37
50057;BME280;36875;49.468;11.200;2023-04-25T06:16:21;97194.22;;;19.23;43.72
50057;BME280;36875;49.468;11.200;2023-04-25T06:18:46;97191.97;;;19.25;43.60
50057;BME280;36875;49.468;11.200;2023-04-25T06:21:11;97208.97;;;19.39;43.85
50057;BME280;36875;49.468;11.200;2023-04-25T06:23:37;97205.41;;;19.48;43.92
50057;BME280;36875;49.468;11.200;2023-04-25T06:26:03;97204.94;;;19.45;44.27
50057;BME280;36875;49.468;11.200;2023-04-25T06:28:30;97199.63;;;19.40;44.18
50057;BME280;36875;49.468;11.200;2023-04-25T06:30:55;97206.56;;;19.38;44.31
50057;BME280;36875;49.468;11.200;2023-04-25T06:33:21;97206.25;;;19.39;44.41
50057;BME280;36875;49.468;11.200;2023-04-25T06:35:47;97195.50;;;19.34;44.24
50057;BME280;36875;49.468;11.200;2023-04-25T06:38:13;97208.31;;;19.42;44.71
50057;BME280;36875;49.468;11.200;2023-04-25T06:40:38;97207.66;;;19.45;44.50
50057;BME280;36875;49.468;11.200;2023-04-25T06:43:04;97211.94;;;19.64;44.10
50057;BME280;36875;49.468;11.200;2023-04-25T06:45:31;97199.06;;;19.91;43.43
50057;BME280;36875;49.468;11.200;2023-04-25T06:47:57;97212.72;;;20.20;42.80
50057;BME280;36875;49.468;11.200;2023-04-25T06:50:22;97206.69;;;20.36;42.40
50057;BME280;36875;49.468;11.200;2023-04-25T06:52:48;97206.91;;;20.52;42.10
50057;BME280;36875;49.468;11.200;2023-04-25T06:55:13;97206.50;;;20.71;41.80
50057;BME280;36875;49.468;11.200;2023-04-25T06:57:39;97208.66;;;20.86;41.44
50057;BME280;36875;49.468;11.200;2023-04-25T07:00:06;97205.75;;;21.04;41.22
50057;BME280;36875;49.468;11.200;2023-04-25T07:02:35;97201.47;;;21.15;41.01
50057;BME280;36875;49.468;11.200;2023-04-25T07:05:01;97207.59;;;21.33;40.89
50057;BME280;36875;49.468;11.200;2023-04-25T07:07:29;97215.06;;;21.45;40.63
50057;BME280;36875;49.468;11.200;2023-04-25T07:09:54;97211.31;;;21.49;40.41
50057;BME280;36875;49.468;11.200;2023-04-25T07:12:20;97206.22;;;21.60;40.52
50057;BME280;36875;49.468;11.200;2023-04-25T07:14:48;97210.31;;;21.66;40.40
50057;BME280;36875;49.468;11.200;2023-04-25T07:17:14;97216.72;;;21.70;40.51
50057;BME280;36875;49.468;11.200;2023-04-25T07:19:41;97213.75;;;21.75;40.30
50057;BME280;36875;49.468;11.200;2023-04-25T07:22:07;97215.03;;;21.78;40.42
50057;BME280;36875;49.468;11.200;2023-04-25T07:24:32;97210.03;;;21.80;40.64
50057;BME280;36875;49.468;11.200;2023-04-25T07:26:58;97217.22;;;21.85;40.42
50057;BME280;36875;49.468;11.200;2023-04-25T07:29:24;97211.28;;;21.83;40.24
50057;BME280;36875;49.468;11.200;2023-04-25T07:31:49;97222.69;;;21.85;40.33
50057;BME280;36875;49.468;11.200;2023-04-25T07:34:15;97229.91;;;21.89;40.45
50057;BME280;36875;49.468;11.200;2023-04-25T07:36:43;97237.28;;;21.89;40.63
50057;BME280;36875;49.468;11.200;2023-04-25T07:39:08;97246.09;;;21.82;40.82
50057;BME280;36875;49.468;11.200;2023-04-25T07:41:34;97244.25;;;21.86;40.61
50057;BME280;36875;49.468;11.200;2023-04-25T07:44:00;97241.84;;;21.85;40.75
50057;BME280;36875;49.468;11.200;2023-04-25T07:46:25;97258.53;;;21.92;40.80
50057;BME280;36875;49.468;11.200;2023-04-25T07:48:51;97255.00;;;21.91;40.89
50057;BME280;36875;49.468;11.200;2023-04-25T07:51:16;97258.88;;;21.90;40.70
50057;BME280;36875;49.468;11.200;2023-04-25T07:53:46;97256.94;;;21.91;40.98
50057;BME280;36875;49.468;11.200;2023-04-25T07:56:14;97258.28;;;21.85;40.86
50057;BME280;36875;49.468;11.200;2023-04-25T07:58:39;97263.56;;;21.90;40.93
50057;BME280;36875;49.468;11.200;2023-04-25T08:01:05;97272.09;;;21.88;40.94
50057;BME280;36875;49.468;11.200;2023-04-25T08:03:30;97271.44;;;21.91;41.10
50057;BME280;36875;49.468;11.200;2023-04-25T08:05:56;97274.50;;;21.90;41.01
50057;BME280;36875;49.468;11.200;2023-04-25T08:08:21;97273.72;;;21.89;41.11
50057;BME280;36875;49.468;11.200;2023-04-25T08:10:48;97275.63;;;21.89;40.91
50057;BME280;36875;49.468;11.200;2023-04-25T08:13:14;97283.84;;;21.89;40.97
50057;BME280;36875;49.468;11.200;2023-04-25T08:15:39;97279.88;;;21.86;41.02
50057;BME280;36875;49.468;11.200;2023-04-25T08:18:05;97288.22;;;21.90;41.12
50057;BME280;36875;49.468;11.200;2023-04-25T08:20:30;97294.81;;;21.89;41.05
50057;BME280;36875;49.468;11.200;2023-04-25T08:22:56;97285.81;;;21.88;40.97
50057;BME280;36875;49.468;11.200;2023-04-25T08:25:22;97284.56;;;21.86;41.28
50057;BME280;36875;49.468;11.200;2023-04-25T08:27:48;97273.34;;;21.79;40.99
50057;BME280;36875;49.468;11.200;2023-04-25T08:30:14;97295.06;;;21.84;41.03
50057;BME280;36875;49.468;11.200;2023-04-25T08:32:40;97286.59;;;21.77;41.03
50057;BME280;36875;49.468;11.200;2023-04-25T08:35:05;97295.25;;;21.79;41.28
50057;BME280;36875;49.468;11.200;2023-04-25T08:37:32;97295.38;;;21.82;41.29
50057;BME280;36875;49.468;11.200;2023-04-25T08:39:57;97295.13;;;21.75;41.39
50057;BME280;36875;49.468;11.200;2023-04-25T08:42:23;97273.19;;;21.63;41.48
50057;BME280;36875;49.468;11.200;2023-04-25T08:44:53;97264.38;;;21.57;41.26
50057;BME280;36875;49.468;11.200;2023-04-25T08:47:21;97308.50;;;21.77;41.37
50057;BME280;36875;49.468;11.200;2023-04-25T08:49:47;97306.22;;;21.79;41.19
50057;BME280;36875;49.468;11.200;2023-04-25T08:52:13;97301.88;;;21.78;41.23
50057;BME280;36875;49.468;11.200;2023-04-25T08:54:41;97300.94;;;21.73;41.19
50057;BME280;36875;49.468;11.200;2023-04-25T08:57:09;97299.31;;;21.72;41.24
50057;BME280;36875;49.468;11.200;2023-04-25T08:59:35;97289.41;;;21.68;41.34
50057;BME280;36875;49.468;11.200;2023-04-25T09:02:04;97310.53;;;21.80;41.21
50057;BME280;36875;49.468;11.200;2023-04-25T09:04:30;97293.66;;;21.78;41.41
50057;BME280;36875;49.468;11.200;2023-04-25T09:06:56;97310.91;;;21.78;41.49
50057;BME280;36875;49.468;11.200;2023-04-25T09:09:23;97309.63;;;21.75;41.30
50057;BME280;36875;49.468;11.200;2023-04-25T09:11:49;97304.13;;;21.75;41.47
50057;BME280;36875;49.468;11.200;2023-04-25T09:14:16;97308.03;;;21.74;41.46
50057;BME280;36875;49.468;11.200;2023-04-25T09:17:02;97306.63;;;21.68;41.41
50057;BME280;36875;49.468;11.200;2023-04-25T09:19:30;97318.84;;;21.71;41.55
50057;BME280;36875;49.468;11.200;2023-04-25T09:21:57;97321.47;;;21.67;41.51
50057;BME280;36875;49.468;11.200;2023-04-25T09:24:34;97316.00;;;21.67;41.48
50057;BME280;36875;49.468;11.200;2023-04-25T09:27:03;97319.06;;;21.66;41.65
50057;BME280;36875;49.468;11.200;2023-04-25T09:29:29;97325.34;;;21.66;41.55
50057;BME280;36875;49.468;11.200;2023-04-25T09:32:10;97313.78;;;21.61;41.55
50057;BME280;36875;49.468;11.200;2023-04-25T09:34:40;97323.38;;;21.67;41.54
50057;BME280;36875;49.468;11.200;2023-04-25T09:37:07;97317.31;;;21.61;41.71
50057;BME280;36875;49.468;11.200;2023-04-25T09:39:33;97318.59;;;21.64;41.88
50057;BME280;36875;49.468;11.200;2023-04-25T09:41:59;97317.56;;;21.68;41.57
50057;BME280;36875;49.468;11.200;2023-04-25T09:44:24;97321.47;;;21.67;41.51
50057;BME280;36875;49.468;11.200;2023-04-25T09:46:50;97329.00;;;21.70;41.50
50057;BME280;36875;49.468;11.200;2023-04-25T09:49:19;97324.66;;;21.69;41.42
50057;BME280;36875;49.468;11.200;2023-04-25T09:51:55;97308.78;;;21.63;41.68
50057;BME280;36875;49.468;11.200;2023-04-25T09:54:21;97322.84;;;21.73;41.40
50057;BME280;36875;49.468;11.200;2023-04-25T09:56:48;97319.97;;;21.70;41.46
50057;BME280;36875;49.468;11.200;2023-04-25T09:59:14;97323.97;;;21.72;41.50
50057;BME280;36875;49.468;11.200;2023-04-25T10:01:40;97315.75;;;21.72;41.43
50057;BME280;36875;49.468;11.200;2023-04-25T10:04:10;97322.53;;;21.75;41.50
50057;BME280;36875;49.468;11.200;2023-04-25T10:06:37;97323.97;;;21.72;41.46
50057;BME280;36875;49.468;11.200;2023-04-25T10:09:05;97306.03;;;21.63;41.50
50057;BME280;36875;49.468;11.200;2023-04-25T10:11:34;97323.88;;;21.69;41.53
50057;BME280;36875;49.468;11.200;2023-04-25T10:14:00;97318.72;;;21.67;41.54
50057;BME280;36875;49.468;11.200;2023-04-25T10:16:27;97324.22;;;21.67;41.45
50057;BME280;36875;49.468;11.200;2023-04-25T10:18:54;97324.34;;;21.71;41.43
50057;BME280;36875;49.468;11.200;2023-04-25T10:21:21;97315.31;;;21.70;41.57
50057;BME280;36875;49.468;11.200;2023-04-25T10:23:47;97313.59;;;21.66;41.59
50057;BME280;36875;49.468;11.200;2023-04-25T10:26:15;97311.19;;;21.64;41.58
50057;BME280;36875;49.468;11.200;2023-04-25T10:29:00;97321.16;;;21.48;41.90
50057;BME280;36875;49.468;11.200;2023-04-25T10:31:30;97295.69;;;21.05;42.33
50057;BME280;36875;49.468;11.200;2023-04-25T10:33:56;97304.09;;;21.00;42.44
50057;BME280;36875;49.468;11.200;2023-04-25T10:36:23;97303.63;;;20.98;41.93
50057;BME280;36875;49.468;11.200;2023-04-25T10:38:49;97306.22;;;20.94;42.31
50057;BME280;36875;49.468;11.200;2023-04-25T10:41:21;97300.16;;;20.89;42.04
50057;BME280;36875;49.468;11.200;2023-04-25T10:43:49;97309.47;;;20.88;41.67
50057;BME280;36875;49.468;11.200;2023-04-25T10:46:16;97303.06;;;20.84;41.52
50057;BME280;36875;49.468;11.200;2023-04-25T10:48:49;97300.19;;;20.80;41.77
50057;BME280;36875;49.468;11.200;2023-04-25T10:51:17;97307.19;;;20.69;42.49
50057;BME280;36875;49.468;11.200;2023-04-25T10:53:43;97311.41;;;20.66;41.95
50057;BME280;36875;49.468;11.200;2023-04-25T10:56:10;97302.88;;;20.68;40.96
50057;BME280;36875;49.468;11.200;2023-04-25T10:58:41;97303.81;;;20.72;40.84
50057;BME280;36875;49.468;11.200;2023-04-25T11:01:07;97316.59;;;20.80;40.96
50057;BME280;36875;49.468;11.200;2023-04-25T11:03:32;97315.31;;;20.86;40.89
50057;BME280;36875;49.468;11.200;2023-04-25T11:06:04;97305.94;;;20.87;41.08
50057;BME280;36875;49.468;11.200;2023-04-25T11:08:37;97287.00;;;20.82;41.02
50057;BME280;36875;49.468;11.200;2023-04-25T11:11:09;97307.47;;;20.97;41.03
50057;BME280;36875;49.468;11.200;2023-04-25T11:13:37;97299.13;;;20.93;41.49
50057;BME280;36875;49.468;11.200;2023-04-25T11:16:06;97304.63;;;20.93;41.58
50057;BME280;36875;49.468;11.200;2023-04-25T11:18:32;97322.16;;;20.92;41.77
50057;BME280;36875;49.468;11.200;2023-04-25T11:20:59;97309.34;;;20.84;41.85
50057;BME280;36875;49.468;11.200;2023-04-25T11:23:25;97324.16;;;20.83;41.73
50057;BME280;36875;49.468;11.200;2023-04-25T11:25:52;97312.47;;;20.74;41.89
50057;BME280;36875;49.468;11.200;2023-04-25T11:28:20;97331.44;;;20.79;41.95
50057;BME280;36875;49.468;11.200;2023-04-25T11:30:48;97320.22;;;20.72;42.10
50057;BME280;36875;49.468;11.200;2023-04-25T11:33:16;97334.50;;;20.77;42.20
50057;BME280;36875;49.468;11.200;2023-04-25T11:35:42;97335.94;;;20.75;42.34
50057;BME280;36875;49.468;11.200;2023-04-25T11:38:07;97321.00;;;20.72;42.60
50057;BME280;36875;49.468;11.200;2023-04-25T11:40:35;97328.72;;;20.70;42.49
50057;BME280;36875;49.468;11.200;2023-04-25T11:43:01;97330.38;;;20.63;42.32
50057;BME280;36875;49.468;11.200;2023-04-25T11:45:28;97339.53;;;20.67;42.37
50057;BME280;36875;49.468;11.200;2023-04-25T11:47:54;97346.09;;;20.66;42.68
50057;BME280;36875;49.468;11.200;2023-04-25T11:50:21;97323.66;;;20.51;42.42
50057;BME280;36875;49.468;11.200;2023-04-25T11:52:47;97348.38;;;20.64;42.71
50057;BME280;36875;49.468;11.200;2023-04-25T11:55:14;97329.78;;;20.48;42.36
50057;BME280;36875;49.468;11.200;2023-04-25T11:57:44;97343.13;;;20.50;42.80
50057;BME280;36875;49.468;11.200;2023-04-25T12:00:12;97350.63;;;20.53;42.64
50057;BME280;36875;49.468;11.200;2023-04-25T12:02:40;97352.91;;;20.51;42.49
50057;BME280;36875;49.468;11.200;2023-04-25T12:05:06;97356.47;;;20.51;42.26
50057;BME280;36875;49.468;11.200;2023-04-25T12:07:35;97346.63;;;20.50;42.42
50057;BME280;36875;49.468;11.200;2023-04-25T12:10:05;97348.91;;;20.48;42.21
50057;BME280;36875;49.468;11.200;2023-04-25T12:12:32;97348.13;;;20.48;42.44
50057;BME280;36875;49.468;11.200;2023-04-25T12:15:08;97349.09;;;20.43;42.40
50057;BME280;36875;49.468;11.200;2023-04-25T12:17:34;97358.22;;;20.47;42.35
50057;BME280;36875;49.468;11.200;2023-04-25T12:20:06;97342.34;;;20.40;42.21
50057;BME280;36875;49.468;11.200;2023-04-25T12:22:32;97346.34;;;20.43;42.50
50057;BME280;36875;49.468;11.200;2023-04-25T12:25:00;97368.22;;;20.43;42.61
50057;BME280;36875;49.468;11.200;2023-04-25T12:27:30;97373.69;;;20.43;42.23
50057;BME280;36875;49.468;11.200;2023-04-25T12:29:57;97371.59;;;20.40;42.29
50057;BME280;36875;49.468;11.200;2023-04-25T12:32:22;97379.00;;;20.39;42.54
50057;BME280;36875;49.468;11.200;2023-04-25T12:34:48;97372.72;;;20.39;42.56
50057;BME280;36875;49.468;11.200;2023-04-25T12:37:14;97371.94;;;20.38;42.40
50057;BME280;36875;49.468;11.200;2023-04-25T12:39:39;97376.59;;;20.38;42.31
50057;BME280;36875;49.468;11.200;2023-04-25T12:42:06;97385.09;;;20.36;42.35
50057;BME280;36875;49.468;11.200;2023-04-25T12:44:33;97378.84;;;20.36;42.48
50057;BME280;36875;49.468;11.200;2023-04-25T12:46:58;97379.50;;;20.33;42.29